Terminal Aerodrome Forecast
Issued by NWS

Current Version | Previous Version | Text Only | Print | Product List | Glossary On
Versions: 1 2 3 4 5 6 7 8 9 10 11 12 13 14 15
750
FTUS43 KBIS 232339
TAFDIK
TAF
KDIK 232339Z 2400/2424 01007KT P6SM -SHRA OVC035
     FM240200 36008KT 4SM -SHRA BR BKN011 OVC025
     FM240400 01008KT 6SM -SHRA BR BKN006 OVC010
     FM241300 35010KT P6SM VCSH OVC005
     FM241700 36011KT P6SM OVC008
     FM242000 36011KT P6SM OVC015=

USA.gov is the U.S. government's official web portal to all federal, state and local government web resources and services.